sensor_id;sensor_type;location;lat;lon;timestamp;pressure;altitude;pressure_sealevel;temperature;humidity
67013;BME280;53926;47.406;19.188;2023-01-28T00:02:03;100396.91;;;0.63;100.00
67013;BME280;53926;47.406;19.188;2023-01-28T00:04:30;100393.69;;;0.61;100.00
67013;BME280;53926;47.406;19.188;2023-01-28T00:06:56;100397.59;;;0.65;100.00
67013;BME280;53926;47.406;19.188;2023-01-28T00:09:23;100392.03;;;0.69;100.00
67013;BME280;53926;47.406;19.188;2023-01-28T00:11:49;100398.00;;;0.60;100.00
67013;BME280;53926;47.406;19.188;2023-01-28T00:14:16;100402.03;;;0.63;100.00
67013;BME280;53926;47.406;19.188;2023-01-28T00:16:43;100405.69;;;0.60;100.00
67013;BME280;53926;47.406;19.188;2023-01-28T00:19:10;100405.00;;;0.58;100.00
67013;BME280;53926;47.406;19.188;2023-01-28T00:21:36;100396.34;;;0.69;100.00
67013;BME280;53926;47.406;19.188;2023-01-28T00:24:03;100400.72;;;0.59;100.00
67013;BME280;53926;47.406;19.188;2023-01-28T00:26:32;100396.75;;;0.64;100.00
67013;BME280;53926;47.406;19.188;2023-01-28T00:29:01;100395.69;;;0.67;100.00
67013;BME280;53926;47.406;19.188;2023-01-28T00:31:30;100395.97;;;0.64;100.00
67013;BME280;53926;47.406;19.188;2023-01-28T00:33:56;100402.84;;;0.63;100.00
67013;BME280;53926;47.406;19.188;2023-01-28T00:36:24;100398.47;;;0.74;100.00
67013;BME280;53926;47.406;19.188;2023-01-28T00:39:00;100400.94;;;0.65;100.00
67013;BME280;53926;47.406;19.188;2023-01-28T00:41:28;100406.22;;;0.64;100.00
67013;BME280;53926;47.406;19.188;2023-01-28T00:43:55;100417.53;;;0.71;100.00
67013;BME280;53926;47.406;19.188;2023-01-28T00:46:22;100412.28;;;0.63;100.00
67013;BME280;53926;47.406;19.188;2023-01-28T00:48:49;100418.19;;;0.73;100.00
67013;BME280;53926;47.406;19.188;2023-01-28T00:51:17;100419.66;;;0.76;100.00
67013;BME280;53926;47.406;19.188;2023-01-28T00:53:46;100417.34;;;0.82;100.00
67013;BME280;53926;47.406;19.188;2023-01-28T00:56:14;100416.28;;;0.75;100.00
67013;BME280;53926;47.406;19.188;2023-01-28T00:58:42;100412.12;;;0.74;100.00
67013;BME280;53926;47.406;19.188;2023-01-28T01:01:12;100414.81;;;0.73;100.00
67013;BME280;53926;47.406;19.188;2023-01-28T01:03:40;100421.69;;;0.72;100.00
67013;BME280;53926;47.406;19.188;2023-01-28T01:06:07;100422.78;;;0.69;100.00
67013;BME280;53926;47.406;19.188;2023-01-28T01:08:36;100419.81;;;0.64;100.00
67013;BME280;53926;47.406;19.188;2023-01-28T01:11:10;100419.38;;;0.79;100.00
67013;BME280;53926;47.406;19.188;2023-01-28T01:13:39;100429.00;;;0.67;100.00
67013;BME280;53926;47.406;19.188;2023-01-28T01:16:09;100418.38;;;0.62;100.00
67013;BME280;53926;47.406;19.188;2023-01-28T01:18:39;100422.25;;;0.66;100.00
67013;BME280;53926;47.406;19.188;2023-01-28T01:21:20;100424.25;;;0.72;100.00
67013;BME280;53926;47.406;19.188;2023-01-28T01:23:47;100421.81;;;0.70;100.00
67013;BME280;53926;47.406;19.188;2023-01-28T01:26:22;100420.53;;;0.57;100.00
67013;BME280;53926;47.406;19.188;2023-01-28T01:28:52;100424.53;;;0.69;100.00
67013;BME280;53926;47.406;19.188;2023-01-28T01:31:20;100432.53;;;0.56;100.00
67013;BME280;53926;47.406;19.188;2023-01-28T01:33:48;100433.31;;;0.57;100.00
67013;BME280;53926;47.406;19.188;2023-01-28T01:36:16;100434.13;;;0.67;100.00
67013;BME280;53926;47.406;19.188;2023-01-28T01:38:51;100436.53;;;0.68;100.00
67013;BME280;53926;47.406;19.188;2023-01-28T01:41:28;100433.59;;;0.63;100.00
67013;BME280;53926;47.406;19.188;2023-01-28T01:46:59;100441.81;;;0.67;100.00
67013;BME280;53926;47.406;19.188;2023-01-28T01:49:21;100435.38;;;0.53;100.00
67013;BME280;53926;47.406;19.188;2023-01-28T01:51:55;100439.94;;;0.59;100.00
67013;BME280;53926;47.406;19.188;2023-01-28T01:54:28;100427.81;;;0.51;100.00
67013;BME280;53926;47.406;19.188;2023-01-28T01:56:58;100435.38;;;0.53;100.00
67013;BME280;53926;47.406;19.188;2023-01-28T01:59:28;100432.44;;;0.48;100.00
67013;BME280;53926;47.406;19.188;2023-01-28T02:02:00;100436.44;;;0.60;100.00
67013;BME280;53926;47.406;19.188;2023-01-28T02:04:30;100438.03;;;0.61;100.00
67013;BME280;53926;47.406;19.188;2023-01-28T02:06:59;100438.59;;;0.55;100.00
67013;BME280;53926;47.406;19.188;2023-01-28T02:09:29;100434.56;;;0.52;100.00
67013;BME280;53926;47.406;19.188;2023-01-28T02:12:00;100438.06;;;0.51;100.00
67013;BME280;53926;47.406;19.188;2023-01-28T02:14:31;100440.91;;;0.48;100.00
67013;BME280;53926;47.406;19.188;2023-01-28T02:17:00;100439.56;;;0.44;100.00
67013;BME280;53926;47.406;19.188;2023-01-28T02:19:39;100442.25;;;0.43;100.00
67013;BME280;53926;47.406;19.188;2023-01-28T02:25:18;100427.56;;;0.45;100.00
67013;BME280;53926;47.406;19.188;2023-01-28T02:28:16;100418.25;;;0.44;100.00
67013;BME280;53926;47.406;19.188;2023-01-28T02:30:59;100426.09;;;0.42;100.00
67013;BME280;53926;47.406;19.188;2023-01-28T02:36:01;100424.75;;;0.38;100.00
67013;BME280;53926;47.406;19.188;2023-01-28T02:38:40;100422.88;;;0.40;100.00
67013;BME280;53926;47.406;19.188;2023-01-28T02:41:14;100427.16;;;0.40;100.00
67013;BME280;53926;47.406;19.188;2023-01-28T02:43:45;100423.13;;;0.37;100.00
67013;BME280;53926;47.406;19.188;2023-01-28T02:49:58;100428.00;;;0.40;100.00
67013;BME280;53926;47.406;19.188;2023-01-28T02:55:32;100429.72;;;0.40;100.00
67013;BME280;53926;47.406;19.188;2023-01-28T03:03:57;100421.00;;;0.32;100.00
67013;BME280;53926;47.406;19.188;2023-01-28T03:06:36;100422.06;;;0.30;100.00
67013;BME280;53926;47.406;19.188;2023-01-28T03:09:07;100419.87;;;0.35;100.00
67013;BME280;53926;47.406;19.188;2023-01-28T03:12:05;100418.94;;;0.46;100.00
67013;BME280;53926;47.406;19.188;2023-01-28T03:14:59;100422.72;;;0.42;100.00
67013;BME280;53926;47.406;19.188;2023-01-28T03:21:04;100420.59;;;0.37;100.00
67013;BME280;53926;47.406;19.188;2023-01-28T03:24:04;100420.84;;;0.34;100.00
67013;BME280;53926;47.406;19.188;2023-01-28T03:26:57;100429.16;;;0.46;100.00
67013;BME280;53926;47.406;19.188;2023-01-28T03:29:46;100429.31;;;0.44;100.00
67013;BME280;53926;47.406;19.188;2023-01-28T03:32:35;100431.88;;;0.44;100.00
67013;BME280;53926;47.406;19.188;2023-01-28T03:35:23;100433.59;;;0.53;100.00
67013;BME280;53926;47.406;19.188;2023-01-28T03:38:10;100429.16;;;0.46;100.00
67013;BME280;53926;47.406;19.188;2023-01-28T03:40:59;100430.13;;;0.45;100.00
67013;BME280;53926;47.406;19.188;2023-01-28T03:43:27;100430.56;;;0.40;100.00
67013;BME280;53926;47.406;19.188;2023-01-28T03:45:54;100445.22;;;0.38;100.00
67013;BME280;53926;47.406;19.188;2023-01-28T03:48:23;100442.94;;;0.45;100.00
67013;BME280;53926;47.406;19.188;2023-01-28T03:50:51;100439.28;;;0.47;100.00
67013;BME280;53926;47.406;19.188;2023-01-28T03:53:20;100435.12;;;0.46;100.00
67013;BME280;53926;47.406;19.188;2023-01-28T03:55:49;100436.56;;;0.59;100.00
67013;BME280;53926;47.406;19.188;2023-01-28T03:58:17;100444.69;;;0.44;100.00
67013;BME280;53926;47.406;19.188;2023-01-28T04:00:44;100440.66;;;0.42;100.00
67013;BME280;53926;47.406;19.188;2023-01-28T04:03:14;100439.00;;;0.50;100.00
67013;BME280;53926;47.406;19.188;2023-01-28T04:08:23;100438.25;;;0.40;100.00
67013;BME280;53926;47.406;19.188;2023-01-28T04:10:52;100440.25;;;0.46;100.00
67013;BME280;53926;47.406;19.188;2023-01-28T04:13:19;100438.09;;;0.42;100.00
67013;BME280;53926;47.406;19.188;2023-01-28T04:15:46;100433.87;;;0.50;100.00
67013;BME280;53926;47.406;19.188;2023-01-28T04:18:16;100441.97;;;0.46;100.00
67013;BME280;53926;47.406;19.188;2023-01-28T04:20:42;100444.00;;;0.52;100.00
67013;BME280;53926;47.406;19.188;2023-01-28T04:23:09;100440.81;;;0.40;100.00
67013;BME280;53926;47.406;19.188;2023-01-28T04:25:36;100437.53;;;0.38;100.00
67013;BME280;53926;47.406;19.188;2023-01-28T04:28:04;100443.22;;;0.42;100.00
67013;BME280;53926;47.406;19.188;2023-01-28T04:30:33;100444.44;;;0.38;100.00
67013;BME280;53926;47.406;19.188;2023-01-28T04:33:01;100445.91;;;0.40;100.00
67013;BME280;53926;47.406;19.188;2023-01-28T04:35:28;100443.22;;;0.32;100.00
67013;BME280;53926;47.406;19.188;2023-01-28T04:37:54;100447.94;;;0.46;100.00
67013;BME280;53926;47.406;19.188;2023-01-28T04:40:21;100450.34;;;0.38;100.00
67013;BME280;53926;47.406;19.188;2023-01-28T04:42:55;100456.03;;;0.42;100.00
67013;BME280;53926;47.406;19.188;2023-01-28T04:45:24;100456.84;;;0.42;100.00
67013;BME280;53926;47.406;19.188;2023-01-28T04:47:50;100452.78;;;0.49;100.00
67013;BME280;53926;47.406;19.188;2023-01-28T04:50:17;100459.12;;;0.45;100.00
67013;BME280;53926;47.406;19.188;2023-01-28T04:52:43;100455.34;;;0.40;100.00
67013;BME280;53926;47.406;19.188;2023-01-28T04:55:10;100463.31;;;0.37;100.00
67013;BME280;53926;47.406;19.188;2023-01-28T04:57:37;100465.06;;;0.36;100.00
67013;BME280;53926;47.406;19.188;2023-01-28T05:00:04;100451.47;;;0.35;100.00
67013;BME280;53926;47.406;19.188;2023-01-28T05:02:31;100459.81;;;0.38;100.00
67013;BME280;53926;47.406;19.188;2023-01-28T05:04:57;100461.94;;;0.42;100.00
67013;BME280;53926;47.406;19.188;2023-01-28T05:07:27;100472.47;;;0.39;100.00
67013;BME280;53926;47.406;19.188;2023-01-28T05:09:54;100463.03;;;0.49;100.00
67013;BME280;53926;47.406;19.188;2023-01-28T05:12:24;100462.88;;;0.41;100.00
67013;BME280;53926;47.406;19.188;2023-01-28T05:14:51;100468.84;;;0.42;100.00
67013;BME280;53926;47.406;19.188;2023-01-28T05:17:17;100473.28;;;0.40;100.00
67013;BME280;53926;47.406;19.188;2023-01-28T05:19:46;100480.69;;;0.33;100.00
67013;BME280;53926;47.406;19.188;2023-01-28T05:22:13;100485.00;;;0.42;100.00
67013;BME280;53926;47.406;19.188;2023-01-28T05:24:40;100483.53;;;0.40;100.00
67013;BME280;53926;47.406;19.188;2023-01-28T05:27:07;100481.66;;;0.42;100.00
67013;BME280;53926;47.406;19.188;2023-01-28T05:29:34;100482.03;;;0.47;100.00
67013;BME280;53926;47.406;19.188;2023-01-28T05:32:00;100487.03;;;0.48;100.00
67013;BME280;53926;47.406;19.188;2023-01-28T05:34:27;100485.13;;;0.50;100.00
67013;BME280;53926;47.406;19.188;2023-01-28T05:36:54;100483.38;;;0.41;100.00
67013;BME280;53926;47.406;19.188;2023-01-28T05:39:20;100486.78;;;0.42;100.00
67013;BME280;53926;47.406;19.188;2023-01-28T05:41:47;100494.16;;;0.55;100.00
67013;BME280;53926;47.406;19.188;2023-01-28T05:44:13;100494.59;;;0.40;100.00
67013;BME280;53926;47.406;19.188;2023-01-28T05:46:40;100496.75;;;0.45;100.00
67013;BME280;53926;47.406;19.188;2023-01-28T05:49:11;100490.41;;;0.39;100.00
67013;BME280;53926;47.406;19.188;2023-01-28T05:51:39;100499.72;;;0.40;100.00
67013;BME280;53926;47.406;19.188;2023-01-28T05:54:06;100506.16;;;0.44;100.00
67013;BME280;53926;47.406;19.188;2023-01-28T05:56:33;100503.88;;;0.41;100.00
67013;BME280;53926;47.406;19.188;2023-01-28T05:59:03;100495.25;;;0.42;100.00
67013;BME280;53926;47.406;19.188;2023-01-28T06:01:29;100496.47;;;0.48;100.00
67013;BME280;53926;47.406;19.188;2023-01-28T06:03:56;100506.44;;;0.41;100.00
67013;BME280;53926;47.406;19.188;2023-01-28T06:06:23;100503.62;;;0.54;100.00
67013;BME280;53926;47.406;19.188;2023-01-28T06:08:49;100502.81;;;0.44;100.00
67013;BME280;53926;47.406;19.188;2023-01-28T06:11:16;100505.63;;;0.50;100.00
67013;BME280;53926;47.406;19.188;2023-01-28T06:13:45;100511.56;;;0.61;100.00
67013;BME280;53926;47.406;19.188;2023-01-28T06:16:11;100516.69;;;0.51;100.00
67013;BME280;53926;47.406;19.188;2023-01-28T06:18:41;100514.69;;;0.45;100.00
67013;BME280;53926;47.406;19.188;2023-01-28T06:21:07;100516.56;;;0.52;100.00
67013;BME280;53926;47.406;19.188;2023-01-28T06:23:36;100516.94;;;0.58;100.00
67013;BME280;53926;47.406;19.188;2023-01-28T06:26:03;100533.00;;;0.60;100.00
67013;BME280;53926;47.406;19.188;2023-01-28T06:28:30;100524.50;;;0.59;100.00
67013;BME280;53926;47.406;19.188;2023-01-28T06:30:59;100522.75;;;0.60;100.00
67013;BME280;53926;47.406;19.188;2023-01-28T06:33:26;100519.53;;;0.48;100.00
67013;BME280;53926;47.406;19.188;2023-01-28T06:35:54;100525.84;;;0.53;100.00
67013;BME280;53926;47.406;19.188;2023-01-28T06:38:23;100539.88;;;0.59;100.00
67013;BME280;53926;47.406;19.188;2023-01-28T06:40:51;100537.19;;;0.61;100.00
67013;BME280;53926;47.406;19.188;2023-01-28T06:43:18;100542.31;;;0.51;100.00
67013;BME280;53926;47.406;19.188;2023-01-28T06:45:49;100537.03;;;0.72;100.00
67013;BME280;53926;47.406;19.188;2023-01-28T06:48:16;100546.75;;;0.68;100.00
67013;BME280;53926;47.406;19.188;2023-01-28T06:50:45;100549.88;;;0.52;100.00
67013;BME280;53926;47.406;19.188;2023-01-28T06:53:13;100556.47;;;0.65;100.00
67013;BME280;53926;47.406;19.188;2023-01-28T06:55:40;100556.47;;;0.65;100.00
67013;BME280;53926;47.406;19.188;2023-01-28T06:58:06;100563.63;;;0.71;100.00
67013;BME280;53926;47.406;19.188;2023-01-28T07:00:33;100564.16;;;0.65;100.00
67013;BME280;53926;47.406;19.188;2023-01-28T07:03:03;100568.63;;;0.73;100.00
67013;BME280;53926;47.406;19.188;2023-01-28T07:05:30;100570.22;;;0.83;100.00
67013;BME280;53926;47.406;19.188;2023-01-28T07:07:57;100570.62;;;0.79;100.00
67013;BME280;53926;47.406;19.188;2023-01-28T07:10:23;100571.16;;;0.82;100.00
67013;BME280;53926;47.406;19.188;2023-01-28T07:12:50;100577.75;;;0.75;100.00
67013;BME280;53926;47.406;19.188;2023-01-28T07:15:17;100573.31;;;0.77;100.00
67013;BME280;53926;47.406;19.188;2023-01-28T07:17:44;100578.03;;;0.72;100.00
67013;BME280;53926;47.406;19.188;2023-01-28T07:20:12;100581.28;;;0.74;100.00
67013;BME280;53926;47.406;19.188;2023-01-28T07:22:42;100586.28;;;0.76;100.00
67013;BME280;53926;47.406;19.188;2023-01-28T07:25:10;100580.72;;;0.90;100.00
67013;BME280;53926;47.406;19.188;2023-01-28T07:27:37;100591.12;;;0.79;100.00
67013;BME280;53926;47.406;19.188;2023-01-28T07:30:07;100594.50;;;0.79;100.00
67013;BME280;53926;47.406;19.188;2023-01-28T07:32:34;100599.22;;;0.84;100.00
67013;BME280;53926;47.406;19.188;2023-01-28T07:35:00;100592.59;;;0.91;100.00
67013;BME280;53926;47.406;19.188;2023-01-28T07:37:27;100600.25;;;1.20;100.00
67013;BME280;53926;47.406;19.188;2023-01-28T07:39:56;100594.88;;;1.04;100.00
67013;BME280;53926;47.406;19.188;2023-01-28T07:42:22;100595.94;;;1.11;100.00
67013;BME280;53926;47.406;19.188;2023-01-28T07:44:51;100599.59;;;1.09;100.00
67013;BME280;53926;47.406;19.188;2023-01-28T07:47:18;100601.75;;;0.94;100.00
67013;BME280;53926;47.406;19.188;2023-01-28T07:49:45;100611.97;;;1.23;100.00
67013;BME280;53926;47.406;19.188;2023-01-28T07:52:11;100597.31;;;1.05;100.00
67013;BME280;53926;47.406;19.188;2023-01-28T07:54:38;100606.84;;;1.33;100.00
67013;BME280;53926;47.406;19.188;2023-01-28T07:57:08;100607.03;;;1.49;100.00
67013;BME280;53926;47.406;19.188;2023-01-28T07:59:35;100604.09;;;1.44;100.00
67013;BME280;53926;47.406;19.188;2023-01-28T08:02:04;100610.00;;;1.54;100.00
67013;BME280;53926;47.406;19.188;2023-01-28T08:04:31;100611.44;;;1.67;100.00
67013;BME280;53926;47.406;19.188;2023-01-28T08:06:58;100614.78;;;1.39;100.00
67013;BME280;53926;47.406;19.188;2023-01-28T08:09:24;100617.16;;;1.51;100.00
67013;BME280;53926;47.406;19.188;2023-01-28T08:11:53;100609.59;;;1.59;100.00
67013;BME280;53926;47.406;19.188;2023-01-28T08:14:20;100617.56;;;1.56;100.00
67013;BME280;53926;47.406;19.188;2023-01-28T08:16:48;100610.44;;;1.50;100.00
67013;BME280;53926;47.406;19.188;2023-01-28T08:19:15;100624.16;;;1.58;100.00
67013;BME280;53926;47.406;19.188;2023-01-28T08:21:46;100618.00;;;1.51;100.00
67013;BME280;53926;47.406;19.188;2023-01-28T08:24:13;100625.59;;;1.71;100.00
67013;BME280;53926;47.406;19.188;2023-01-28T08:26:39;100622.50;;;1.67;100.00
67013;BME280;53926;47.406;19.188;2023-01-28T08:29:06;100626.34;;;1.53;100.00
67013;BME280;53926;47.406;19.188;2023-01-28T08:31:33;100624.56;;;1.16;100.00
67013;BME280;53926;47.406;19.188;2023-01-28T08:33:59;100628.69;;;1.37;100.00
67013;BME280;53926;47.406;19.188;2023-01-28T08:36:27;100633.44;;;1.69;100.00
67013;BME280;53926;47.406;19.188;2023-01-28T08:38:54;100634.28;;;1.70;100.00
67013;BME280;53926;47.406;19.188;2023-01-28T08:41:21;100643.47;;;1.63;100.00
67013;BME280;53926;47.406;19.188;2023-01-28T08:43:49;100636.28;;;1.66;100.00
67013;BME280;53926;47.406;19.188;2023-01-28T08:46:15;100637.91;;;1.67;100.00
67013;BME280;53926;47.406;19.188;2023-01-28T08:48:42;100641.69;;;1.73;100.00
67013;BME280;53926;47.406;19.188;2023-01-28T08:51:09;100633.50;;;1.87;100.00
67013;BME280;53926;47.406;19.188;2023-01-28T08:53:35;100641.78;;;1.81;100.00
67013;BME280;53926;47.406;19.188;2023-01-28T08:56:02;100642.78;;;1.98;100.00
67013;BME280;53926;47.406;19.188;2023-01-28T08:58:28;100648.62;;;1.90;100.00
67013;BME280;53926;47.406;19.188;2023-01-28T09:00:55;100650.84;;;2.13;100.00
67013;BME280;53926;47.406;19.188;2023-01-28T09:03:22;100649.78;;;1.78;100.00
67013;BME280;53926;47.406;19.188;2023-01-28T09:05:48;100652.81;;;1.64;100.00
67013;BME280;53926;47.406;19.188;2023-01-28T09:08:15;100657.28;;;1.89;100.00
67013;BME280;53926;47.406;19.188;2023-01-28T09:10:42;100655.94;;;1.57;100.00
67013;BME280;53926;47.406;19.188;2023-01-28T09:13:14;100659.00;;;1.61;100.00
67013;BME280;53926;47.406;19.188;2023-01-28T09:15:41;100661.06;;;1.48;100.00
67013;BME280;53926;47.406;19.188;2023-01-28T09:18:08;100665.13;;;1.50;100.00
67013;BME280;53926;47.406;19.188;2023-01-28T09:20:38;100665.84;;;1.80;100.00
67013;BME280;53926;47.406;19.188;2023-01-28T09:23:05;100667.78;;;1.68;100.00
67013;BME280;53926;47.406;19.188;2023-01-28T09:25:32;100673.47;;;2.00;100.00
67013;BME280;53926;47.406;19.188;2023-01-28T09:28:02;100663.25;;;1.42;100.00
67013;BME280;53926;47.406;19.188;2023-01-28T09:30:30;100678.94;;;1.77;100.00
67013;BME280;53926;47.406;19.188;2023-01-28T09:32:56;100674.87;;;1.37;100.00
67013;BME280;53926;47.406;19.188;2023-01-28T09:35:26;100668.41;;;1.80;100.00
67013;BME280;53926;47.406;19.188;2023-01-28T09:37:57;100673.06;;;1.67;100.00
67013;BME280;53926;47.406;19.188;2023-01-28T09:43:20;100669.94;;;1.73;100.00
67013;BME280;53926;47.406;19.188;2023-01-28T09:45:52;100670.66;;;1.46;100.00
67013;BME280;53926;47.406;19.188;2023-01-28T09:48:25;100676.91;;;1.33;100.00
67013;BME280;53926;47.406;19.188;2023-01-28T09:50:57;100671.06;;;1.60;100.00
67013;BME280;53926;47.406;19.188;2023-01-28T09:53:30;100667.69;;;1.98;100.00
67013;BME280;53926;47.406;19.188;2023-01-28T09:56:01;100667.84;;;2.14;100.00
67013;BME280;53926;47.406;19.188;2023-01-28T09:58:31;100662.75;;;2.32;100.00
67013;BME280;53926;47.406;19.188;2023-01-28T10:04:04;100672.31;;;3.30;100.00
67013;BME280;53926;47.406;19.188;2023-01-28T10:09:20;100660.44;;;3.37;100.00
67013;BME280;53926;47.406;19.188;2023-01-28T10:12:36;100660.44;;;2.75;100.00
67013;BME280;53926;47.406;19.188;2023-01-28T10:15:27;100666.63;;;3.26;100.00
67013;BME280;53926;47.406;19.188;2023-01-28T10:18:05;100664.13;;;2.72;100.00
67013;BME280;53926;47.406;19.188;2023-01-28T10:20:48;100661.41;;;2.74;100.00
67013;BME280;53926;47.406;19.188;2023-01-28T10:23:25;100656.81;;;2.49;100.00
67013;BME280;53926;47.406;19.188;2023-01-28T10:25:58;100661.16;;;3.03;100.00
67013;BME280;53926;47.406;19.188;2023-01-28T10:28:28;100655.84;;;2.32;100.00
67013;BME280;53926;47.406;19.188;2023-01-28T10:30:55;100656.81;;;2.31;100.00
67013;BME280;53926;47.406;19.188;2023-01-28T10:33:34;100672.28;;;2.22;100.00
67013;BME280;53926;47.406;19.188;2023-01-28T10:36:02;100663.38;;;2.44;100.00
67013;BME280;53926;47.406;19.188;2023-01-28T10:38:30;100665.00;;;2.17;100.00
67013;BME280;53926;47.406;19.188;2023-01-28T10:41:00;100658.72;;;2.29;100.00
67013;BME280;53926;47.406;19.188;2023-01-28T10:43:36;100668.22;;;2.47;100.00
67013;BME280;53926;47.406;19.188;2023-01-28T10:46:15;100675.06;;;2.56;100.00
67013;BME280;53926;47.406;19.188;2023-01-28T10:49:14;100670.72;;;2.57;100.00
67013;BME280;53926;47.406;19.188;2023-01-28T10:51:43;100667.31;;;2.38;100.00
67013;BME280;53926;47.406;19.188;2023-01-28T10:54:28;100668.81;;;2.59;100.00
67013;BME280;53926;47.406;19.188;2023-01-28T10:57:00;100669.53;;;2.51;100.00
67013;BME280;53926;47.406;19.188;2023-01-28T10:59:29;100669.25;;;2.72;100.00
67013;BME280;53926;47.406;19.188;2023-01-28T11:02:01;100675.81;;;2.66;100.00
67013;BME280;53926;47.406;19.188;2023-01-28T11:04:30;100667.41;;;2.64;100.00
67013;BME280;53926;47.406;19.188;2023-01-28T11:09:28;100659.25;;;2.51;100.00
67013;BME280;53926;47.406;19.188;2023-01-28T11:12:28;100663.09;;;2.83;100.00
67013;BME280;53926;47.406;19.188;2023-01-28T11:14:57;100670.50;;;3.22;100.00
67013;BME280;53926;47.406;19.188;2023-01-28T11:17:36;100664.75;;;3.28;100.00
67013;BME280;53926;47.406;19.188;2023-01-28T11:20:12;100660.34;;;3.20;100.00
67013;BME280;53926;47.406;19.188;2023-01-28T11:22:44;100670.00;;;2.82;100.00
67013;BME280;53926;47.406;19.188;2023-01-28T11:25:18;100653.09;;;2.98;100.00
67013;BME280;53926;47.406;19.188;2023-01-28T11:27:53;100659.91;;;3.25;100.00
67013;BME280;53926;47.406;19.188;2023-01-28T11:30:28;100660.28;;;3.38;100.00
67013;BME280;53926;47.406;19.188;2023-01-28T11:33:30;100656.75;;;3.13;100.00
67013;BME280;53926;47.406;19.188;2023-01-28T11:36:15;100646.84;;;3.00;100.00
67013;BME280;53926;47.406;19.188;2023-01-28T11:38:57;100665.06;;;2.89;100.00
67013;BME280;53926;47.406;19.188;2023-01-28T11:43:54;100646.84;;;3.00;100.00
67013;BME280;53926;47.406;19.188;2023-01-28T11:57:20;100628.50;;;4.33;100.00
67013;BME280;53926;47.406;19.188;2023-01-28T12:03:04;100631.88;;;3.83;100.00
67013;BME280;53926;47.406;19.188;2023-01-28T12:05:54;100635.41;;;3.82;100.00
67013;BME280;53926;47.406;19.188;2023-01-28T12:08:38;100635.34;;;4.08;100.00
67013;BME280;53926;47.406;19.188;2023-01-28T12:11:42;100642.03;;;3.24;100.00
67013;BME280;53926;47.406;19.188;2023-01-28T12:44:58;100626.78;;;4.75;89.02
67013;BME280;53926;47.406;19.188;2023-01-28T12:47:33;100619.50;;;4.70;88.93
67013;BME280;53926;47.406;19.188;2023-01-28T12:50:24;100625.75;;;4.43;91.54
67013;BME280;53926;47.406;19.188;2023-01-28T12:52:58;100625.16;;;4.74;88.70
67013;BME280;53926;47.406;19.188;2023-01-28T12:55:43;100635.66;;;4.89;88.85
67013;BME280;53926;47.406;19.188;2023-01-28T12:58:17;100637.41;;;4.96;85.70
67013;BME280;53926;47.406;19.188;2023-01-28T13:00:53;100633.03;;;4.80;87.35
67013;BME280;53926;47.406;19.188;2023-01-28T13:04:04;100630.94;;;4.51;89.27
67013;BME280;53926;47.406;19.188;2023-01-28T13:06:37;100639.97;;;4.47;89.48
67013;BME280;53926;47.406;19.188;2023-01-28T13:09:15;100644.41;;;4.20;89.31
67013;BME280;53926;47.406;19.188;2023-01-28T13:11:48;100647.91;;;4.11;91.82
67013;BME280;53926;47.406;19.188;2023-01-28T13:14:17;100639.69;;;3.99;90.59
67013;BME280;53926;47.406;19.188;2023-01-28T13:16:45;100647.66;;;3.88;93.96
67013;BME280;53926;47.406;19.188;2023-01-28T13:21:45;100643.81;;;3.92;93.32
67013;BME280;53926;47.406;19.188;2023-01-28T13:26:43;100645.91;;;3.88;90.93
67013;BME280;53926;47.406;19.188;2023-01-28T13:31:49;100650.00;;;4.07;93.92
67013;BME280;53926;47.406;19.188;2023-01-28T13:34:35;100649.97;;;3.99;89.97
67013;BME280;53926;47.406;19.188;2023-01-28T13:37:22;100660.22;;;3.83;87.75
67013;BME280;53926;47.406;19.188;2023-01-28T13:39:57;100660.91;;;3.93;88.78
67013;BME280;53926;47.406;19.188;2023-01-28T13:42:27;100655.62;;;4.03;88.56
67013;BME280;53926;47.406;19.188;2023-01-28T13:44:55;100657.63;;;3.83;89.56
67013;BME280;53926;47.406;19.188;2023-01-28T13:47:35;100666.00;;;3.85;90.94
67013;BME280;53926;47.406;19.188;2023-01-28T14:04:54;100677.00;;;3.87;87.50
67013;BME280;53926;47.406;19.188;2023-01-28T14:08:28;100682.72;;;4.07;88.75
67013;BME280;53926;47.406;19.188;2023-01-28T14:15:09;100684.78;;;4.03;89.89
67013;BME280;53926;47.406;19.188;2023-01-28T14:17:34;100680.47;;;4.20;88.80
67013;BME280;53926;47.406;19.188;2023-01-28T14:20:19;100689.31;;;3.75;90.19
67013;BME280;53926;47.406;19.188;2023-01-28T14:22:48;100688.31;;;4.02;89.07
67013;BME280;53926;47.406;19.188;2023-01-28T14:25:26;100691.09;;;3.74;88.39
67013;BME280;53926;47.406;19.188;2023-01-28T14:27:55;100687.94;;;3.89;88.06
67013;BME280;53926;47.406;19.188;2023-01-28T14:30:35;100693.53;;;3.50;90.49
67013;BME280;53926;47.406;19.188;2023-01-28T14:33:08;100702.50;;;3.72;88.95
67013;BME280;53926;47.406;19.188;2023-01-28T14:35:44;100694.47;;;3.75;87.43
67013;BME280;53926;47.406;19.188;2023-01-28T14:38:15;100702.50;;;3.46;88.55
67013;BME280;53926;47.406;19.188;2023-01-28T14:40:44;100699.50;;;3.32;89.80
67013;BME280;53926;47.406;19.188;2023-01-28T14:43:17;100706.00;;;3.18;91.27
67013;BME280;53926;47.406;19.188;2023-01-28T14:51:19;100708.13;;;3.23;93.07
67013;BME280;53926;47.406;19.188;2023-01-28T14:54:17;100713.25;;;3.23;93.30
67013;BME280;53926;47.406;19.188;2023-01-28T14:57:08;100726.38;;;3.12;94.15
67013;BME280;53926;47.406;19.188;2023-01-28T15:02:30;100723.50;;;2.97;96.82
67013;BME280;53926;47.406;19.188;2023-01-28T15:05:08;100721.53;;;3.09;96.75